Terminal Aerodrome Forecast
Issued by NWS Austin/San Antonio, TX

Home | Current Version | Previous Version | Text Only | Print | Product List | Glossary On
Versions: 1 2 3 4 5 6 7 8 9 10 11 12 13 14 15 16
000
FTUS44 KEWX 290500
TAFSAT
TAF
KSAT 290521Z 2906/3012 17009KT P6SM SKC
     FM291000 20007KT P6SM BKN015
     FM291500 20010KT P6SM SCT025
     FM291700 19012G22KT P6SM SCT040
     FM292300 17010KT P6SM BKN040
     FM300600 18010KT P6SM BKN010
     FM301000 18007KT 3SM BR BKN007=

USA.gov is the U.S. government's official web portal to all federal, state and local government web resources and services.